sensor_id;sensor_type;location;lat;lon;timestamp;temperature;humidity
65637;DHT22;52327;42.622;23.316;2023-03-01T00:01:10;6.02;89.25
65637;DHT22;52327;42.622;23.316;2023-03-01T00:03:37;6.08;88.58
65637;DHT22;52327;42.622;23.316;2023-03-01T00:06:03;6.15;88.52
65637;DHT22;52327;42.622;23.316;2023-03-01T00:08:29;6.25;88.71
65637;DHT22;52327;42.622;23.316;2023-03-01T00:13:33;6.35;88.60
65637;DHT22;52327;42.622;23.316;2023-03-01T00:15:59;6.29;87.02
65637;DHT22;52327;42.622;23.316;2023-03-01T00:18:26;6.39;87.70
65637;DHT22;52327;42.622;23.316;2023-03-01T00:20:55;6.41;87.50
65637;DHT22;52327;42.622;23.316;2023-03-01T00:23:22;6.39;87.37
65637;DHT22;52327;42.622;23.316;2023-03-01T00:25:47;6.52;87.25
65637;DHT22;52327;42.622;23.316;2023-03-01T00:28:13;6.53;87.68
65637;DHT22;52327;42.622;23.316;2023-03-01T00:30:39;6.53;87.92
65637;DHT22;52327;42.622;23.316;2023-03-01T00:33:04;6.49;87.84
65637;DHT22;52327;42.622;23.316;2023-03-01T00:35:32;6.49;87.01
65637;DHT22;52327;42.622;23.316;2023-03-01T00:37:57;6.45;87.89
65637;DHT22;52327;42.622;23.316;2023-03-01T00:40:30;6.36;87.78
65637;DHT22;52327;42.622;23.316;2023-03-01T00:42:56;6.33;87.93
65637;DHT22;52327;42.622;23.316;2023-03-01T00:45:22;6.31;87.33
65637;DHT22;52327;42.622;23.316;2023-03-01T00:47:49;6.21;87.61
65637;DHT22;52327;42.622;23.316;2023-03-01T00:50:15;6.25;86.42
65637;DHT22;52327;42.622;23.316;2023-03-01T00:52:40;6.05;84.75
65637;DHT22;52327;42.622;23.316;2023-03-01T00:55:06;5.94;86.43
65637;DHT22;52327;42.622;23.316;2023-03-01T00:57:32;5.86;86.01
65637;DHT22;52327;42.622;23.316;2023-03-01T00:59:58;5.86;86.73
65637;DHT22;52327;42.622;23.316;2023-03-01T01:02:24;5.84;84.62
65637;DHT22;52327;42.622;23.316;2023-03-01T01:04:50;5.83;85.81
65637;DHT22;52327;42.622;23.316;2023-03-01T01:07:16;5.74;84.65
65637;DHT22;52327;42.622;23.316;2023-03-01T01:09:41;5.75;84.49
65637;DHT22;52327;42.622;23.316;2023-03-01T01:12:07;5.71;85.05
65637;DHT22;52327;42.622;23.316;2023-03-01T01:14:33;5.59;84.54
65637;DHT22;52327;42.622;23.316;2023-03-01T01:16:58;5.67;84.79
65637;DHT22;52327;42.622;23.316;2023-03-01T01:19:25;5.63;85.55
65637;DHT22;52327;42.622;23.316;2023-03-01T01:21:52;5.57;85.07
65637;DHT22;52327;42.622;23.316;2023-03-01T01:24:18;5.51;86.32
65637;DHT22;52327;42.622;23.316;2023-03-01T01:26:44;5.53;85.95
65637;DHT22;52327;42.622;23.316;2023-03-01T01:29:10;5.47;86.20
65637;DHT22;52327;42.622;23.316;2023-03-01T01:31:36;5.50;86.58
65637;DHT22;52327;42.622;23.316;2023-03-01T01:34:04;5.35;86.59
65637;DHT22;52327;42.622;23.316;2023-03-01T01:36:30;5.28;86.75
65637;DHT22;52327;42.622;23.316;2023-03-01T01:38:56;5.13;86.98
65637;DHT22;52327;42.622;23.316;2023-03-01T01:41:23;5.11;87.41
65637;DHT22;52327;42.622;23.316;2023-03-01T01:46:36;5.09;87.71
65637;DHT22;52327;42.622;23.316;2023-03-01T01:49:12;5.12;88.22
65637;DHT22;52327;42.622;23.316;2023-03-01T01:51:42;5.18;87.58
65637;DHT22;52327;42.622;23.316;2023-03-01T01:54:12;5.32;88.18
65637;DHT22;52327;42.622;23.316;2023-03-01T01:56:41;5.36;87.55
65637;DHT22;52327;42.622;23.316;2023-03-01T01:59:09;5.49;85.34
65637;DHT22;52327;42.622;23.316;2023-03-01T02:01:35;5.42;83.47
65637;DHT22;52327;42.622;23.316;2023-03-01T02:04:01;5.53;84.78
65637;DHT22;52327;42.622;23.316;2023-03-01T02:06:34;5.59;84.41
65637;DHT22;52327;42.622;23.316;2023-03-01T02:09:03;5.59;85.93
65637;DHT22;52327;42.622;23.316;2023-03-01T02:11:31;5.56;86.39
65637;DHT22;52327;42.622;23.316;2023-03-01T02:13:57;5.60;86.16
65637;DHT22;52327;42.622;23.316;2023-03-01T02:16:22;5.46;84.07
65637;DHT22;52327;42.622;23.316;2023-03-01T02:18:49;5.53;86.66
65637;DHT22;52327;42.622;23.316;2023-03-01T02:21:34;5.64;84.74
65637;DHT22;52327;42.622;23.316;2023-03-01T02:26:48;5.70;85.98
65637;DHT22;52327;42.622;23.316;2023-03-01T02:29:15;5.73;85.95
65637;DHT22;52327;42.622;23.316;2023-03-01T02:31:41;5.73;86.25
65637;DHT22;52327;42.622;23.316;2023-03-01T02:34:08;5.86;85.92
65637;DHT22;52327;42.622;23.316;2023-03-01T02:36:37;5.81;86.29
65637;DHT22;52327;42.622;23.316;2023-03-01T02:39:05;5.81;85.70
65637;DHT22;52327;42.622;23.316;2023-03-01T02:41:35;5.78;85.45
65637;DHT22;52327;42.622;23.316;2023-03-01T02:44:03;5.78;85.31
65637;DHT22;52327;42.622;23.316;2023-03-01T02:46:28;5.73;85.99
65637;DHT22;52327;42.622;23.316;2023-03-01T02:48:58;5.73;85.57
65637;DHT22;52327;42.622;23.316;2023-03-01T02:56:34;5.83;85.46
65637;DHT22;52327;42.622;23.316;2023-03-01T02:59:00;5.78;84.97
65637;DHT22;52327;42.622;23.316;2023-03-01T03:01:26;5.87;84.73
65637;DHT22;52327;42.622;23.316;2023-03-01T03:04:03;5.69;85.05
65637;DHT22;52327;42.622;23.316;2023-03-01T03:06:29;5.51;85.84
65637;DHT22;52327;42.622;23.316;2023-03-01T03:08:54;5.46;85.73
65637;DHT22;52327;42.622;23.316;2023-03-01T03:11:20;5.46;85.87
65637;DHT22;52327;42.622;23.316;2023-03-01T03:13:46;5.40;86.85
65637;DHT22;52327;42.622;23.316;2023-03-01T03:16:13;5.50;86.79
65637;DHT22;52327;42.622;23.316;2023-03-01T03:18:39;5.60;85.90
65637;DHT22;52327;42.622;23.316;2023-03-01T03:21:11;5.56;86.88
65637;DHT22;52327;42.622;23.316;2023-03-01T03:23:37;5.54;86.96
65637;DHT22;52327;42.622;23.316;2023-03-01T03:26:03;5.63;87.10
65637;DHT22;52327;42.622;23.316;2023-03-01T03:28:30;5.66;86.55
65637;DHT22;52327;42.622;23.316;2023-03-01T03:30:56;5.71;84.95
65637;DHT22;52327;42.622;23.316;2023-03-01T03:33:21;5.73;86.63
65637;DHT22;52327;42.622;23.316;2023-03-01T03:35:48;5.81;86.97
65637;DHT22;52327;42.622;23.316;2023-03-01T03:38:16;5.81;85.80
65637;DHT22;52327;42.622;23.316;2023-03-01T03:40:45;5.86;84.97
65637;DHT22;52327;42.622;23.316;2023-03-01T03:43:20;5.78;82.62
65637;DHT22;52327;42.622;23.316;2023-03-01T03:48:48;5.78;85.23
65637;DHT22;52327;42.622;23.316;2023-03-01T03:51:16;5.74;82.55
65637;DHT22;52327;42.622;23.316;2023-03-01T03:53:42;5.66;84.93
65637;DHT22;52327;42.622;23.316;2023-03-01T03:56:08;5.61;85.57
65637;DHT22;52327;42.622;23.316;2023-03-01T03:58:52;5.44;83.84
65637;DHT22;52327;42.622;23.316;2023-03-01T04:04:02;5.53;84.26
65637;DHT22;52327;42.622;23.316;2023-03-01T04:06:32;5.42;86.47
65637;DHT22;52327;42.622;23.316;2023-03-01T04:09:03;5.50;85.26
65637;DHT22;52327;42.622;23.316;2023-03-01T04:11:28;5.26;85.40
65637;DHT22;52327;42.622;23.316;2023-03-01T04:13:57;5.25;86.90
65637;DHT22;52327;42.622;23.316;2023-03-01T04:16:23;5.20;86.25
65637;DHT22;52327;42.622;23.316;2023-03-01T04:18:48;5.28;86.87
65637;DHT22;52327;42.622;23.316;2023-03-01T04:21:14;5.33;87.12
65637;DHT22;52327;42.622;23.316;2023-03-01T04:23:40;5.33;86.70
65637;DHT22;52327;42.622;23.316;2023-03-01T04:26:06;5.38;87.60
65637;DHT22;52327;42.622;23.316;2023-03-01T04:28:36;5.47;87.95
65637;DHT22;52327;42.622;23.316;2023-03-01T04:31:10;5.56;87.51
65637;DHT22;52327;42.622;23.316;2023-03-01T04:33:40;5.60;86.88
65637;DHT22;52327;42.622;23.316;2023-03-01T04:36:06;5.63;87.35
65637;DHT22;52327;42.622;23.316;2023-03-01T04:38:34;5.69;87.14
65637;DHT22;52327;42.622;23.316;2023-03-01T04:41:03;5.60;85.79
65637;DHT22;52327;42.622;23.316;2023-03-01T04:43:28;5.50;86.32
65637;DHT22;52327;42.622;23.316;2023-03-01T04:45:54;5.56;86.99
65637;DHT22;52327;42.622;23.316;2023-03-01T04:48:19;5.56;86.82
65637;DHT22;52327;42.622;23.316;2023-03-01T04:50:44;5.51;84.83
65637;DHT22;52327;42.622;23.316;2023-03-01T04:53:10;5.51;86.48
65637;DHT22;52327;42.622;23.316;2023-03-01T04:55:35;5.51;86.72
65637;DHT22;52327;42.622;23.316;2023-03-01T04:58:01;5.50;87.20
65637;DHT22;52327;42.622;23.316;2023-03-01T05:00:26;5.56;87.02
65637;DHT22;52327;42.622;23.316;2023-03-01T05:02:57;5.51;86.51
65637;DHT22;52327;42.622;23.316;2023-03-01T05:05:27;5.46;86.95
65637;DHT22;52327;42.622;23.316;2023-03-01T05:07:57;5.54;86.54
65637;DHT22;52327;42.622;23.316;2023-03-01T05:10:25;5.47;86.42
65637;DHT22;52327;42.622;23.316;2023-03-01T05:12:51;5.57;87.06
65637;DHT22;52327;42.622;23.316;2023-03-01T05:15:18;5.60;86.36
65637;DHT22;52327;42.622;23.316;2023-03-01T05:17:43;5.70;87.31
65637;DHT22;52327;42.622;23.316;2023-03-01T05:20:10;5.87;86.29
65637;DHT22;52327;42.622;23.316;2023-03-01T05:22:36;5.86;83.77
65637;DHT22;52327;42.622;23.316;2023-03-01T05:25:02;5.95;84.97
65637;DHT22;52327;42.622;23.316;2023-03-01T05:30:24;6.15;82.57
65637;DHT22;52327;42.622;23.316;2023-03-01T05:32:56;6.22;83.63
65637;DHT22;52327;42.622;23.316;2023-03-01T05:35:22;6.21;80.29
65637;DHT22;52327;42.622;23.316;2023-03-01T05:37:49;6.26;82.20
65637;DHT22;52327;42.622;23.316;2023-03-01T05:40:17;6.39;81.61
65637;DHT22;52327;42.622;23.316;2023-03-01T05:42:49;6.50;82.56
65637;DHT22;52327;42.622;23.316;2023-03-01T05:45:15;6.56;79.84
65637;DHT22;52327;42.622;23.316;2023-03-01T05:47:42;6.49;80.22
65637;DHT22;52327;42.622;23.316;2023-03-01T05:50:22;6.57;78.66
65637;DHT22;52327;42.622;23.316;2023-03-01T05:52:51;6.59;76.95
65637;DHT22;52327;42.622;23.316;2023-03-01T05:55:19;6.65;79.47
65637;DHT22;52327;42.622;23.316;2023-03-01T05:57:45;6.69;79.33
65637;DHT22;52327;42.622;23.316;2023-03-01T06:00:11;6.55;79.21
65637;DHT22;52327;42.622;23.316;2023-03-01T06:02:37;6.59;80.26
65637;DHT22;52327;42.622;23.316;2023-03-01T06:05:04;6.65;78.68
65637;DHT22;52327;42.622;23.316;2023-03-01T06:07:31;6.65;78.11
65637;DHT22;52327;42.622;23.316;2023-03-01T06:09:56;6.63;77.47
65637;DHT22;52327;42.622;23.316;2023-03-01T06:12:22;6.62;78.68
65637;DHT22;52327;42.622;23.316;2023-03-01T06:14:47;6.63;79.38
65637;DHT22;52327;42.622;23.316;2023-03-01T06:17:13;6.65;78.82
65637;DHT22;52327;42.622;23.316;2023-03-01T06:19:39;6.76;80.85
65637;DHT22;52327;42.622;23.316;2023-03-01T06:22:05;6.94;79.73
65637;DHT22;52327;42.622;23.316;2023-03-01T06:24:30;6.94;78.67
65637;DHT22;52327;42.622;23.316;2023-03-01T06:26:56;6.96;78.62
65637;DHT22;52327;42.622;23.316;2023-03-01T06:29:21;6.90;75.37
65637;DHT22;52327;42.622;23.316;2023-03-01T06:31:48;6.97;78.34
65637;DHT22;52327;42.622;23.316;2023-03-01T06:34:14;7.01;77.05
65637;DHT22;52327;42.622;23.316;2023-03-01T06:36:42;7.11;78.14
65637;DHT22;52327;42.622;23.316;2023-03-01T06:39:08;7.11;76.09
65637;DHT22;52327;42.622;23.316;2023-03-01T06:41:33;7.17;76.99
65637;DHT22;52327;42.622;23.316;2023-03-01T06:43:59;7.17;78.08
65637;DHT22;52327;42.622;23.316;2023-03-01T06:46:28;7.17;77.14
65637;DHT22;52327;42.622;23.316;2023-03-01T06:48:53;7.17;78.28
65637;DHT22;52327;42.622;23.316;2023-03-01T06:51:18;7.20;78.63
65637;DHT22;52327;42.622;23.316;2023-03-01T06:53:46;7.25;78.21
65637;DHT22;52327;42.622;23.316;2023-03-01T06:56:11;7.31;78.01
65637;DHT22;52327;42.622;23.316;2023-03-01T06:58:37;7.41;77.87
65637;DHT22;52327;42.622;23.316;2023-03-01T07:01:08;7.50;77.53
65637;DHT22;52327;42.622;23.316;2023-03-01T07:03:34;7.62;75.72
65637;DHT22;52327;42.622;23.316;2023-03-01T07:05:59;7.75;75.12
65637;DHT22;52327;42.622;23.316;2023-03-01T07:08:25;7.86;77.24
65637;DHT22;52327;42.622;23.316;2023-03-01T07:10:58;8.02;77.02
65637;DHT22;52327;42.622;23.316;2023-03-01T07:13:23;8.07;76.17
65637;DHT22;52327;42.622;23.316;2023-03-01T07:15:49;8.22;76.36
65637;DHT22;52327;42.622;23.316;2023-03-01T07:18:14;8.20;75.40
65637;DHT22;52327;42.622;23.316;2023-03-01T07:20:40;8.14;75.63
65637;DHT22;52327;42.622;23.316;2023-03-01T07:23:06;8.20;73.98
65637;DHT22;52327;42.622;23.316;2023-03-01T07:25:32;8.25;73.40
65637;DHT22;52327;42.622;23.316;2023-03-01T07:27:58;8.27;72.53
65637;DHT22;52327;42.622;23.316;2023-03-01T07:30:23;8.26;73.12
65637;DHT22;52327;42.622;23.316;2023-03-01T07:32:51;8.20;74.38
65637;DHT22;52327;42.622;23.316;2023-03-01T07:35:17;8.32;72.34
65637;DHT22;52327;42.622;23.316;2023-03-01T07:37:43;8.40;74.97
65637;DHT22;52327;42.622;23.316;2023-03-01T07:40:09;8.47;74.30
65637;DHT22;52327;42.622;23.316;2023-03-01T07:42:34;8.33;71.79
65637;DHT22;52327;42.622;23.316;2023-03-01T07:45:00;8.37;72.70
65637;DHT22;52327;42.622;23.316;2023-03-01T07:47:25;8.36;73.61
65637;DHT22;52327;42.622;23.316;2023-03-01T07:49:51;8.27;74.81
65637;DHT22;52327;42.622;23.316;2023-03-01T07:52:16;8.06;73.98
65637;DHT22;52327;42.622;23.316;2023-03-01T07:54:45;8.09;73.83
65637;DHT22;52327;42.622;23.316;2023-03-01T07:57:10;8.16;73.83
65637;DHT22;52327;42.622;23.316;2023-03-01T07:59:36;8.23;73.50
65637;DHT22;52327;42.622;23.316;2023-03-01T08:02:01;8.38;73.74
65637;DHT22;52327;42.622;23.316;2023-03-01T08:04:27;8.30;72.99
65637;DHT22;52327;42.622;23.316;2023-03-01T08:06:53;8.25;72.60
65637;DHT22;52327;42.622;23.316;2023-03-01T08:09:19;7.89;73.64
65637;DHT22;52327;42.622;23.316;2023-03-01T08:11:44;8.00;74.48
65637;DHT22;52327;42.622;23.316;2023-03-01T08:14:10;8.00;72.32
65637;DHT22;52327;42.622;23.316;2023-03-01T08:16:36;8.09;74.23
65637;DHT22;52327;42.622;23.316;2023-03-01T08:19:06;8.09;72.78
65637;DHT22;52327;42.622;23.316;2023-03-01T08:21:32;8.09;73.55
65637;DHT22;52327;42.622;23.316;2023-03-01T08:24:02;8.00;74.37
65637;DHT22;52327;42.622;23.316;2023-03-01T08:26:28;8.22;71.44
65637;DHT22;52327;42.622;23.316;2023-03-01T08:28:54;8.20;74.65
65637;DHT22;52327;42.622;23.316;2023-03-01T08:31:25;8.17;72.74
65637;DHT22;52327;42.622;23.316;2023-03-01T08:33:54;8.12;71.84
65637;DHT22;52327;42.622;23.316;2023-03-01T08:36:25;8.17;72.92
65637;DHT22;52327;42.622;23.316;2023-03-01T08:38:51;8.25;72.97
65637;DHT22;52327;42.622;23.316;2023-03-01T08:41:16;8.43;73.28
65637;DHT22;52327;42.622;23.316;2023-03-01T08:43:42;8.81;73.16
65637;DHT22;52327;42.622;23.316;2023-03-01T08:46:08;8.68;71.12
65637;DHT22;52327;42.622;23.316;2023-03-01T08:48:33;8.67;72.07
65637;DHT22;52327;42.622;23.316;2023-03-01T08:51:16;8.64;71.06
65637;DHT22;52327;42.622;23.316;2023-03-01T08:53:42;8.72;71.54
65637;DHT22;52327;42.622;23.316;2023-03-01T08:56:08;8.72;70.45
65637;DHT22;52327;42.622;23.316;2023-03-01T08:58:34;8.81;71.95
65637;DHT22;52327;42.622;23.316;2023-03-01T09:01:00;9.01;71.39
65637;DHT22;52327;42.622;23.316;2023-03-01T09:03:26;9.25;68.66
65637;DHT22;52327;42.622;23.316;2023-03-01T09:05:52;9.36;68.50
65637;DHT22;52327;42.622;23.316;2023-03-01T09:08:18;9.53;70.25
65637;DHT22;52327;42.622;23.316;2023-03-01T09:10:44;9.29;68.25
65637;DHT22;52327;42.622;23.316;2023-03-01T09:13:10;9.18;69.45
65637;DHT22;52327;42.622;23.316;2023-03-01T09:15:39;9.15;71.49
65637;DHT22;52327;42.622;23.316;2023-03-01T09:18:05;9.19;70.07
65637;DHT22;52327;42.622;23.316;2023-03-01T09:20:31;9.09;69.10
65637;DHT22;52327;42.622;23.316;2023-03-01T09:22:57;9.08;68.28
65637;DHT22;52327;42.622;23.316;2023-03-01T09:25:23;9.09;69.43
65637;DHT22;52327;42.622;23.316;2023-03-01T09:27:53;9.15;69.79
65637;DHT22;52327;42.622;23.316;2023-03-01T09:30:19;9.29;69.20
65637;DHT22;52327;42.622;23.316;2023-03-01T09:32:44;9.49;67.81
65637;DHT22;52327;42.622;23.316;2023-03-01T09:35:11;9.54;68.20
65637;DHT22;52327;42.622;23.316;2023-03-01T09:37:37;9.49;67.39
65637;DHT22;52327;42.622;23.316;2023-03-01T09:40:04;9.64;67.04
65637;DHT22;52327;42.622;23.316;2023-03-01T09:42:34;9.91;66.47
65637;DHT22;52327;42.622;23.316;2023-03-01T09:45:36;10.15;65.00
65637;DHT22;52327;42.622;23.316;2023-03-01T09:48:05;10.22;66.93
65637;DHT22;52327;42.622;23.316;2023-03-01T09:50:35;10.30;66.27
65637;DHT22;52327;42.622;23.316;2023-03-01T09:53:10;10.27;66.86
65637;DHT22;52327;42.622;23.316;2023-03-01T10:00:49;10.32;64.15
65637;DHT22;52327;42.622;23.316;2023-03-01T10:03:50;10.18;65.28
65637;DHT22;52327;42.622;23.316;2023-03-01T10:06:23;10.04;67.55
65637;DHT22;52327;42.622;23.316;2023-03-01T10:08:58;10.17;66.25
65637;DHT22;52327;42.622;23.316;2023-03-01T10:11:32;10.37;65.13
65637;DHT22;52327;42.622;23.316;2023-03-01T10:17:00;10.91;63.68
65637;DHT22;52327;42.622;23.316;2023-03-01T10:19:32;10.61;62.58
65637;DHT22;52327;42.622;23.316;2023-03-01T10:22:28;10.53;66.05
65637;DHT22;52327;42.622;23.316;2023-03-01T10:24:58;10.51;63.22
65637;DHT22;52327;42.622;23.316;2023-03-01T10:27:29;10.20;64.99
65637;DHT22;52327;42.622;23.316;2023-03-01T10:30:09;10.18;65.71
65637;DHT22;52327;42.622;23.316;2023-03-01T10:32:38;10.37;66.80
65637;DHT22;52327;42.622;23.316;2023-03-01T10:35:27;10.34;66.21
65637;DHT22;52327;42.622;23.316;2023-03-01T10:38:06;10.49;66.70
65637;DHT22;52327;42.622;23.316;2023-03-01T10:40:35;10.58;66.41
65637;DHT22;52327;42.622;23.316;2023-03-01T10:43:03;10.17;64.49
65637;DHT22;52327;42.622;23.316;2023-03-01T10:50:46;10.10;68.18
65637;DHT22;52327;42.622;23.316;2023-03-01T10:53:24;10.10;66.59
65637;DHT22;52327;42.622;23.316;2023-03-01T10:56:00;10.24;65.89
65637;DHT22;52327;42.622;23.316;2023-03-01T10:58:30;10.24;67.11
65637;DHT22;52327;42.622;23.316;2023-03-01T11:08:44;9.93;65.77
65637;DHT22;52327;42.622;23.316;2023-03-01T11:11:42;9.70;67.61
65637;DHT22;52327;42.622;23.316;2023-03-01T11:14:37;9.69;68.51
65637;DHT22;52327;42.622;23.316;2023-03-01T11:17:25;9.70;70.24
65637;DHT22;52327;42.622;23.316;2023-03-01T11:22:48;9.73;66.39
65637;DHT22;52327;42.622;23.316;2023-03-01T11:25:15;9.60;68.61
65637;DHT22;52327;42.622;23.316;2023-03-01T11:27:43;9.43;68.81
65637;DHT22;52327;42.622;23.316;2023-03-01T11:30:20;9.35;70.85
65637;DHT22;52327;42.622;23.316;2023-03-01T11:33:05;9.52;69.85
65637;DHT22;52327;42.622;23.316;2023-03-01T11:35:32;9.76;69.58
65637;DHT22;52327;42.622;23.316;2023-03-01T11:38:30;9.81;70.26
65637;DHT22;52327;42.622;23.316;2023-03-01T11:57:22;9.49;68.34
65637;DHT22;52327;42.622;23.316;2023-03-01T12:00:02;9.43;70.25
65637;DHT22;52327;42.622;23.316;2023-03-01T12:08:26;10.01;69.69
65637;DHT22;52327;42.622;23.316;2023-03-01T12:11:01;9.91;68.22
65637;DHT22;52327;42.622;23.316;2023-03-01T12:14:03;10.00;66.93
65637;DHT22;52327;42.622;23.316;2023-03-01T12:22:35;10.49;66.41
65637;DHT22;52327;42.622;23.316;2023-03-01T12:25:25;10.63;66.90
65637;DHT22;52327;42.622;23.316;2023-03-01T12:28:09;10.58;64.08
65637;DHT22;52327;42.622;23.316;2023-03-01T12:36:23;10.63;65.61
65637;DHT22;52327;42.622;23.316;2023-03-01T12:47:14;11.34;65.06
65637;DHT22;52327;42.622;23.316;2023-03-01T12:49:51;11.55;62.51
65637;DHT22;52327;42.622;23.316;2023-03-01T12:52:37;11.54;63.98
65637;DHT22;52327;42.622;23.316;2023-03-01T12:55:08;11.57;64.84
65637;DHT22;52327;42.622;23.316;2023-03-01T12:57:56;11.77;63.00
65637;DHT22;52327;42.622;23.316;2023-03-01T13:00:49;11.67;64.07
65637;DHT22;52327;42.622;23.316;2023-03-01T13:06:08;11.85;63.04
65637;DHT22;52327;42.622;23.316;2023-03-01T13:08:56;11.71;62.90
65637;DHT22;52327;42.622;23.316;2023-03-01T13:11:25;11.57;63.76
65637;DHT22;52327;42.622;23.316;2023-03-01T13:13:51;11.36;63.36
65637;DHT22;52327;42.622;23.316;2023-03-01T13:21:33;11.19;62.98
65637;DHT22;52327;42.622;23.316;2023-03-01T13:23:58;11.13;64.68
65637;DHT22;52327;42.622;23.316;2023-03-01T13:26:24;11.20;63.74
65637;DHT22;52327;42.622;23.316;2023-03-01T13:28:51;11.19;64.88
65637;DHT22;52327;42.622;23.316;2023-03-01T13:33:49;11.12;64.53
65637;DHT22;52327;42.622;23.316;2023-03-01T13:39:26;10.95;62.89
65637;DHT22;52327;42.622;23.316;2023-03-01T13:41:55;10.88;63.81
65637;DHT22;52327;42.622;23.316;2023-03-01T13:44:33;10.66;65.64
65637;DHT22;52327;42.622;23.316;2023-03-01T13:47:16;10.49;66.34
65637;DHT22;52327;42.622;23.316;2023-03-01T13:49:56;10.20;67.48
65637;DHT22;52327;42.622;23.316;2023-03-01T13:55:27;10.31;65.62
65637;DHT22;52327;42.622;23.316;2023-03-01T13:57:57;10.25;65.65
65637;DHT22;52327;42.622;23.316;2023-03-01T14:00:25;10.32;68.51
65637;DHT22;52327;42.622;23.316;2023-03-01T14:03:14;10.42;66.93
65637;DHT22;52327;42.622;23.316;2023-03-01T14:05:43;10.59;66.75
65637;DHT22;52327;42.622;23.316;2023-03-01T14:08:19;10.68;66.42
65637;DHT22;52327;42.622;23.316;2023-03-01T14:19:15;10.05;67.10
65637;DHT22;52327;42.622;23.316;2023-03-01T14:21:42;10.17;69.58
65637;DHT22;52327;42.622;23.316;2023-03-01T14:24:17;10.27;68.80
65637;DHT22;52327;42.622;23.316;2023-03-01T14:26:42;10.38;67.80
65637;DHT22;52327;42.622;23.316;2023-03-01T14:29:26;10.34;67.75
65637;DHT22;52327;42.622;23.316;2023-03-01T14:31:52;10.30;66.54
65637;DHT22;52327;42.622;23.316;2023-03-01T14:34:22;10.32;68.24
65637;DHT22;52327;42.622;23.316;2023-03-01T14:36:48;10.27;67.69
65637;DHT22;52327;42.622;23.316;2023-03-01T14:39:24;10.27;68.47
65637;DHT22;52327;42.622;23.316;2023-03-01T14:41:51;10.07;68.95
65637;DHT22;52327;42.622;23.316;2023-03-01T14:44:23;9.73;66.08
65637;DHT22;52327;42.622;23.316;2023-03-01T14:46:53;9.57;68.28
65637;DHT22;52327;42.622;23.316;2023-03-01T14:49:23;9.40;71.18
65637;DHT22;52327;42.622;23.316;2023-03-01T14:52:02;9.38;68.95
65637;DHT22;52327;42.622;23.316;2023-03-01T14:54:42;9.15;70.93
65637;DHT22;52327;42.622;23.316;2023-03-01T14:57:18;9.15;71.64
65637;DHT22;52327;42.622;23.316;2023-03-01T14:59:44;8.93;72.38
65637;DHT22;52327;42.622;23.316;2023-03-01T15:02:17;8.77;71.52
65637;DHT22;52327;42.622;23.316;2023-03-01T15:04:49;8.75;72.69
65637;DHT22;52327;42.622;23.316;2023-03-01T15:07:17;8.50;71.30
65637;DHT22;52327;42.622;23.316;2023-03-01T15:09:43;8.23;72.54
65637;DHT22;52327;42.622;23.316;2023-03-01T15:14:53;8.07;73.17
65637;DHT22;52327;42.622;23.316;2023-03-01T15:17:35;7.96;75.86
65637;DHT22;52327;42.622;23.316;2023-03-01T15:20:07;7.92;73.73
65637;DHT22;52327;42.622;23.316;2023-03-01T15:22:43;7.75;74.46
65637;DHT22;52327;42.622;23.316;2023-03-01T15:25:18;7.69;74.64
65637;DHT22;52327;42.622;23.316;2023-03-01T15:27:49;7.62;76.77
65637;DHT22;52327;42.622;23.316;2023-03-01T15:30:21;7.54;77.02
65637;DHT22;52327;42.622;23.316;2023-03-01T15:35:47;7.45;75.85
65637;DHT22;52327;42.622;23.316;2023-03-01T15:38:30;7.38;75.99
65637;DHT22;52327;42.622;23.316;2023-03-01T15:40:57;7.44;74.62
65637;DHT22;52327;42.622;23.316;2023-03-01T15:43:56;7.34;76.74
65637;DHT22;52327;42.622;23.316;2023-03-01T15:46:33;7.35;76.23
65637;DHT22;52327;42.622;23.316;2023-03-01T15:49:04;7.38;76.67
65637;DHT22;52327;42.622;23.316;2023-03-01T15:51:35;7.31;76.59
65637;DHT22;52327;42.622;23.316;2023-03-01T15:54:22;7.17;78.04
65637;DHT22;52327;42.622;23.316;2023-03-01T15:56:48;7.05;76.58
65637;DHT22;52327;42.622;23.316;2023-03-01T15:59:14;6.96;77.54
65637;DHT22;52327;42.622;23.316;2023-03-01T16:01:43;7.00;78.82
65637;DHT22;52327;42.622;23.316;2023-03-01T16:04:10;7.01;76.78
65637;DHT22;52327;42.622;23.316;2023-03-01T16:06:38;7.01;78.35
65637;DHT22;52327;42.622;23.316;2023-03-01T16:09:04;6.80;77.87
65637;DHT22;52327;42.622;23.316;2023-03-01T16:11:30;6.69;78.49
65637;DHT22;52327;42.622;23.316;2023-03-01T16:13:57;6.63;78.08
65637;DHT22;52327;42.622;23.316;2023-03-01T16:16:23;6.48;80.18
65637;DHT22;52327;42.622;23.316;2023-03-01T16:18:48;6.50;80.89
65637;DHT22;52327;42.622;23.316;2023-03-01T16:21:24;6.63;80.05
65637;DHT22;52327;42.622;23.316;2023-03-01T16:23:50;6.62;80.37
65637;DHT22;52327;42.622;23.316;2023-03-01T16:26:16;6.69;80.51
65637;DHT22;52327;42.622;23.316;2023-03-01T16:28:43;6.75;81.69
65637;DHT22;52327;42.622;23.316;2023-03-01T16:31:09;6.72;80.42
65637;DHT22;52327;42.622;23.316;2023-03-01T16:33:35;6.77;80.00
65637;DHT22;52327;42.622;23.316;2023-03-01T16:36:11;6.73;79.49
65637;DHT22;52327;42.622;23.316;2023-03-01T16:38:37;6.66;80.31
65637;DHT22;52327;42.622;23.316;2023-03-01T16:41:04;6.57;80.53
65637;DHT22;52327;42.622;23.316;2023-03-01T16:43:30;6.50;79.88
65637;DHT22;52327;42.622;23.316;2023-03-01T16:45:56;6.57;79.06
65637;DHT22;52327;42.622;23.316;2023-03-01T16:48:21;6.55;80.61
65637;DHT22;52327;42.622;23.316;2023-03-01T16:50:56;6.49;81.91
65637;DHT22;52327;42.622;23.316;2023-03-01T16:53:21;6.52;83.15
65637;DHT22;52327;42.622;23.316;2023-03-01T16:55:53;6.49;84.30
65637;DHT22;52327;42.622;23.316;2023-03-01T16:58:19;6.55;84.60
65637;DHT22;52327;42.622;23.316;2023-03-01T17:00:44;6.52;84.63
65637;DHT22;52327;42.622;23.316;2023-03-01T17:03:09;6.52;84.98
65637;DHT22;52327;42.622;23.316;2023-03-01T17:05:35;6.55;85.32
65637;DHT22;52327;42.622;23.316;2023-03-01T17:08:00;6.52;85.64
65637;DHT22;52327;42.622;23.316;2023-03-01T17:10:25;6.56;85.45
65637;DHT22;52327;42.622;23.316;2023-03-01T17:12:51;6.55;85.19
65637;DHT22;52327;42.622;23.316;2023-03-01T17:15:17;6.50;85.06
65637;DHT22;52327;42.622;23.316;2023-03-01T17:17:42;6.53;85.29
65637;DHT22;52327;42.622;23.316;2023-03-01T17:20:09;6.52;84.35
65637;DHT22;52327;42.622;23.316;2023-03-01T17:22:35;6.52;84.47
65637;DHT22;52327;42.622;23.316;2023-03-01T17:25:00;6.57;83.38
65637;DHT22;52327;42.622;23.316;2023-03-01T17:27:26;6.42;81.34
65637;DHT22;52327;42.622;23.316;2023-03-01T17:29:51;6.29;80.67
65637;DHT22;52327;42.622;23.316;2023-03-01T17:32:17;6.18;79.99
65637;DHT22;52327;42.622;23.316;2023-03-01T17:34:42;6.15;80.74
65637;DHT22;52327;42.622;23.316;2023-03-01T17:37:08;6.24;79.96
65637;DHT22;52327;42.622;23.316;2023-03-01T17:39:33;6.24;77.30